createdAt,value
2023-01-20T00:01:25.098Z,-3.42
2023-01-20T00:03:53.690Z,-3.39
2023-01-20T00:06:21.193Z,-3.41
2023-01-20T00:08:55.734Z,-3.42
2023-01-20T00:11:22.981Z,-3.42
2023-01-20T00:13:54.223Z,-3.45
2023-01-20T00:16:20.960Z,-3.35
2023-01-20T00:18:47.654Z,-3.62
2023-01-20T00:21:16.838Z,-3.72
2023-01-20T00:23:44.481Z,-3.72
2023-01-20T00:26:14.005Z,-3.75
2023-01-20T00:28:40.751Z,-3.75
2023-01-20T00:31:25.129Z,-3.97
2023-01-20T00:33:53.155Z,-3.98
2023-01-20T00:36:21.741Z,-4.00
2023-01-20T00:38:48.975Z,-4.05
2023-01-20T00:41:16.080Z,-3.96
2023-01-20T00:43:43.357Z,-3.91
2023-01-20T00:46:10.101Z,-3.73
2023-01-20T00:48:37.053Z,-3.67
2023-01-20T00:51:05.153Z,-3.62
2023-01-20T00:53:32.043Z,-3.71
2023-01-20T00:55:58.973Z,-3.86
2023-01-20T00:58:26.029Z,-3.79
2023-01-20T01:00:53.615Z,-3.83
2023-01-20T01:03:20.402Z,-3.84
2023-01-20T01:05:47.431Z,-3.97
2023-01-20T01:08:14.768Z,-3.99
2023-01-20T01:10:41.563Z,-3.95
2023-01-20T01:13:09.091Z,-3.89
2023-01-20T01:15:36.024Z,-4.03
2023-01-20T01:18:02.915Z,-4.06
2023-01-20T01:20:29.659Z,-3.94
2023-01-20T01:22:56.732Z,-4.15
2023-01-20T01:25:23.721Z,-4.28
2023-01-20T01:27:50.618Z,-4.33
2023-01-20T01:30:17.566Z,-4.23
2023-01-20T01:32:44.360Z,-4.09
2023-01-20T01:35:11.080Z,-4.13
2023-01-20T01:37:37.909Z,-4.10
2023-01-20T01:40:05.408Z,-4.15
2023-01-20T01:42:32.126Z,-4.23
2023-01-20T01:45:21.709Z,-4.13
2023-01-20T01:47:52.893Z,-3.98
2023-01-20T01:50:26.092Z,-3.94
2023-01-20T01:52:54.480Z,-3.97
2023-01-20T01:55:24.072Z,-4.00
2023-01-20T01:57:51.282Z,-3.93
2023-01-20T02:00:18.092Z,-3.84
2023-01-20T02:02:45.723Z,-3.90
2023-01-20T02:05:14.320Z,-3.90
2023-01-20T02:07:43.333Z,-4.04
2023-01-20T02:10:10.673Z,-4.04
2023-01-20T02:12:37.492Z,-3.98
2023-01-20T02:15:04.664Z,-3.93
2023-01-20T02:17:34.424Z,-3.87
2023-01-20T02:20:22.441Z,-3.97
2023-01-20T02:23:18.126Z,-3.99
2023-01-20T02:26:10.797Z,-3.96
2023-01-20T02:28:52.493Z,-3.99
2023-01-20T02:31:56.729Z,-3.65
2023-01-20T02:34:38.014Z,-3.89
2023-01-20T02:37:14.939Z,-3.84
2023-01-20T02:39:50.018Z,-3.91
2023-01-20T02:42:23.733Z,-3.96
2023-01-20T02:45:06.499Z,-3.91
2023-01-20T02:47:51.482Z,-3.94
2023-01-20T02:50:27.977Z,-3.92
2023-01-20T02:52:57.105Z,-3.89
2023-01-20T02:55:32.665Z,-3.82
2023-01-20T02:58:04.000Z,-3.75
2023-01-20T03:00:35.313Z,-3.86
2023-01-20T03:03:04.662Z,-4.04
2023-01-20T03:05:33.634Z,-3.99
2023-01-20T03:08:03.053Z,-3.98
2023-01-20T03:10:31.422Z,-3.99
2023-01-20T03:13:14.125Z,-3.93
2023-01-20T03:15:56.186Z,-3.89
2023-01-20T03:18:23.082Z,-3.92
2023-01-20T03:20:49.835Z,-3.87
2023-01-20T03:23:16.721Z,-3.87
2023-01-20T03:25:44.435Z,-3.81
2023-01-20T03:28:11.191Z,-3.84
2023-01-20T03:30:37.943Z,-3.80
2023-01-20T03:33:04.721Z,-3.74
2023-01-20T03:35:31.371Z,-3.78
2023-01-20T03:37:58.142Z,-3.96
2023-01-20T03:40:26.353Z,-3.98
2023-01-20T03:43:00.330Z,-3.90
2023-01-20T03:45:29.591Z,-4.04
2023-01-20T03:48:31.443Z,-4.07
2023-01-20T03:51:33.971Z,-4.18
2023-01-20T03:54:03.789Z,-4.02
2023-01-20T03:56:37.380Z,-4.05
2023-01-20T03:59:05.187Z,-3.94
2023-01-20T04:01:35.337Z,-3.99
2023-01-20T04:04:03.520Z,-3.87
2023-01-20T04:06:31.246Z,-3.97
2023-01-20T04:09:25.414Z,-3.90
2023-01-20T04:11:52.231Z,-4.12
2023-01-20T04:14:19.024Z,-4.14
2023-01-20T04:16:58.282Z,-4.02
2023-01-20T04:19:26.008Z,-4.09
2023-01-20T04:22:20.862Z,-4.08
2023-01-20T04:25:05.930Z,-4.24
2023-01-20T04:27:32.703Z,-4.33
2023-01-20T04:29:59.436Z,-4.27
2023-01-20T04:32:26.270Z,-4.19
2023-01-20T04:34:53.592Z,-4.14
2023-01-20T04:37:20.331Z,-4.27
2023-01-20T04:39:47.031Z,-4.23
2023-01-20T04:42:13.720Z,-4.24
2023-01-20T04:44:40.499Z,-4.16
2023-01-20T04:47:07.267Z,-4.03
2023-01-20T04:49:35.456Z,-3.94
2023-01-20T04:52:02.255Z,-4.04
2023-01-20T04:54:28.931Z,-4.00
2023-01-20T04:56:55.671Z,-3.95
2023-01-20T04:59:22.441Z,-4.10
2023-01-20T05:01:49.200Z,-4.08
2023-01-20T05:04:16.041Z,-4.01
2023-01-20T05:06:43.562Z,-4.04
2023-01-20T05:09:15.285Z,-3.94
2023-01-20T05:11:43.023Z,-3.98
2023-01-20T05:14:11.381Z,-3.92
2023-01-20T05:16:38.189Z,-3.90
2023-01-20T05:19:05.006Z,-3.81
2023-01-20T05:21:31.828Z,-3.75
2023-01-20T05:23:58.652Z,-3.70
2023-01-20T05:26:26.034Z,-3.83
2023-01-20T05:28:53.031Z,-3.94
2023-01-20T05:31:19.725Z,-3.90
2023-01-20T05:33:46.395Z,-3.81
2023-01-20T05:36:13.037Z,-3.79
2023-01-20T05:38:39.753Z,-3.80
2023-01-20T05:41:08.234Z,-3.76
2023-01-20T05:43:34.880Z,-3.63
2023-01-20T05:46:03.170Z,-3.62
2023-01-20T05:48:29.970Z,-3.57
2023-01-20T05:50:56.986Z,-3.58
2023-01-20T05:53:23.668Z,-3.57
2023-01-20T05:55:50.417Z,-3.63
2023-01-20T05:58:17.112Z,-3.67
2023-01-20T06:00:43.975Z,-3.58
2023-01-20T06:03:10.791Z,-3.55
2023-01-20T06:05:37.696Z,-3.57
2023-01-20T06:08:04.655Z,-3.60
2023-01-20T06:10:31.353Z,-3.50
2023-01-20T06:12:58.054Z,-3.51
2023-01-20T06:15:25.447Z,-3.51
2023-01-20T06:17:52.730Z,-3.49
2023-01-20T06:20:19.633Z,-3.49
2023-01-20T06:22:46.381Z,-3.57
2023-01-20T06:25:13.423Z,-3.70
2023-01-20T06:27:40.408Z,-3.57
2023-01-20T06:30:08.382Z,-3.60
2023-01-20T06:32:35.135Z,-3.63
2023-01-20T06:35:01.825Z,-3.69
2023-01-20T06:37:28.706Z,-3.64
2023-01-20T06:39:55.406Z,-3.55
2023-01-20T06:42:22.267Z,-3.65
2023-01-20T06:44:49.054Z,-3.67
2023-01-20T06:47:15.786Z,-3.66
2023-01-20T06:49:42.485Z,-3.72
2023-01-20T06:52:09.895Z,-3.63
2023-01-20T06:54:36.682Z,-3.57
2023-01-20T06:57:03.583Z,-3.54
2023-01-20T06:59:30.373Z,-3.58
2023-01-20T07:01:57.298Z,-3.59
2023-01-20T07:04:24.217Z,-3.53
2023-01-20T07:06:50.989Z,-3.47
2023-01-20T07:09:18.001Z,-3.44
2023-01-20T07:11:44.893Z,-3.45
2023-01-20T07:14:11.705Z,-3.45
2023-01-20T07:16:38.839Z,-3.43
2023-01-20T07:19:06.033Z,-3.46
2023-01-20T07:21:32.728Z,-3.31
2023-01-20T07:24:02.691Z,-3.24
2023-01-20T07:26:29.595Z,-3.26
2023-01-20T07:28:58.770Z,-3.37
2023-01-20T07:31:27.551Z,-3.36
2023-01-20T07:33:58.057Z,-3.37
2023-01-20T07:36:25.068Z,-3.36
2023-01-20T07:38:52.946Z,-3.30
2023-01-20T07:41:20.344Z,-3.27
2023-01-20T07:43:51.936Z,-3.25
2023-01-20T07:46:18.912Z,-3.26
2023-01-20T07:48:45.624Z,-3.21
2023-01-20T07:51:13.817Z,-3.26
2023-01-20T07:53:51.728Z,-3.23
2023-01-20T07:56:27.747Z,-3.26
2023-01-20T07:58:55.429Z,-3.30
2023-01-20T08:01:29.673Z,-3.20
2023-01-20T08:03:57.774Z,-3.19
2023-01-20T08:06:25.771Z,-2.95
2023-01-20T08:08:53.113Z,-2.92
2023-01-20T08:11:21.676Z,-2.93
2023-01-20T08:13:49.071Z,-2.92
2023-01-20T08:16:17.308Z,-2.96
2023-01-20T08:18:44.605Z,-2.98
2023-01-20T08:21:23.898Z,-3.03
2023-01-20T08:23:51.007Z,-2.97
2023-01-20T08:26:19.569Z,-2.92
2023-01-20T08:28:46.454Z,-2.85
2023-01-20T08:31:16.310Z,-2.78
2023-01-20T08:33:43.783Z,-2.67
2023-01-20T08:36:24.000Z,-2.59
2023-01-20T08:38:50.808Z,-2.53
2023-01-20T08:41:23.761Z,-2.61
2023-01-20T08:43:50.763Z,-2.68
2023-01-20T08:46:19.037Z,-2.57
2023-01-20T08:48:46.440Z,-2.52
2023-01-20T08:51:22.678Z,-2.60
2023-01-20T08:53:49.763Z,-2.63
2023-01-20T08:56:17.708Z,-2.56
2023-01-20T08:58:45.217Z,-2.42
2023-01-20T09:01:18.641Z,-2.41
2023-01-20T09:03:59.318Z,-2.40
2023-01-20T09:06:31.567Z,-2.41
2023-01-20T09:08:58.267Z,-2.58
2023-01-20T09:11:25.472Z,-2.65
2023-01-20T09:13:52.441Z,-2.56
2023-01-20T09:16:19.695Z,-2.42
2023-01-20T09:18:46.568Z,-2.22
2023-01-20T09:21:13.292Z,-2.07
2023-01-20T09:23:40.672Z,-2.05
2023-01-20T09:26:08.569Z,-2.10
2023-01-20T09:28:35.772Z,-2.07
2023-01-20T09:31:07.601Z,-2.10
2023-01-20T09:33:38.272Z,-2.12
2023-01-20T09:36:07.286Z,-2.20
2023-01-20T09:38:52.816Z,-2.15
2023-01-20T09:41:50.856Z,-2.09
2023-01-20T09:44:32.802Z,-2.11
2023-01-20T09:47:20.667Z,-2.13
2023-01-20T09:50:18.075Z,-2.05
2023-01-20T09:53:03.478Z,-2.06
2023-01-20T09:55:48.257Z,-1.88
2023-01-20T09:58:30.552Z,-1.90
2023-01-20T10:01:21.023Z,-1.87
2023-01-20T10:03:53.688Z,-1.74
2023-01-20T10:06:27.085Z,-1.66
2023-01-20T10:09:05.991Z,-1.42
2023-01-20T10:11:43.931Z,-1.57
2023-01-20T10:14:33.176Z,-1.71
2023-01-20T10:17:14.255Z,-1.71
2023-01-20T10:19:49.568Z,-1.45
2023-01-20T10:22:39.670Z,-1.52
2023-01-20T10:25:13.729Z,-1.63
2023-01-20T10:27:45.607Z,-1.70
2023-01-20T10:30:14.649Z,-1.52
2023-01-20T10:32:47.821Z,-1.48
2023-01-20T10:35:24.833Z,-1.44
2023-01-20T10:37:55.823Z,-1.26
2023-01-20T10:41:13.977Z,-1.42
2023-01-20T10:43:42.880Z,-1.31
2023-01-20T10:46:37.370Z,-0.94
2023-01-20T10:49:30.936Z,-1.41
2023-01-20T10:52:05.058Z,-1.42
2023-01-20T10:54:51.880Z,-1.61
2023-01-20T10:57:18.523Z,-1.68
2023-01-20T10:59:48.469Z,-1.46
2023-01-20T11:02:23.291Z,-1.40
2023-01-20T11:04:59.036Z,-1.47
2023-01-20T11:07:26.537Z,-1.62
2023-01-20T11:09:53.396Z,-1.33
2023-01-20T11:12:26.380Z,-1.18
2023-01-20T11:14:55.516Z,-1.40
2023-01-20T11:17:22.295Z,-1.37
2023-01-20T11:19:55.047Z,-1.38
2023-01-20T11:22:28.723Z,-1.30
2023-01-20T11:24:58.992Z,-1.40
2023-01-20T11:27:41.602Z,-1.51
2023-01-20T11:30:22.809Z,-1.21
2023-01-20T11:33:16.503Z,-1.54
2023-01-20T11:36:04.137Z,-1.47
2023-01-20T11:38:57.260Z,-1.45
2023-01-20T11:41:26.705Z,-1.63
2023-01-20T11:43:56.037Z,-1.42
2023-01-20T11:46:25.782Z,-1.48
2023-01-20T11:49:17.153Z,-1.51
2023-01-20T11:51:45.958Z,-1.51
2023-01-20T11:54:18.938Z,-1.48
2023-01-20T11:56:47.801Z,-1.61
2023-01-20T11:59:46.931Z,-1.35
2023-01-20T12:02:13.674Z,-1.47
2023-01-20T12:04:53.016Z,-1.47
2023-01-20T12:07:39.291Z,-1.46
2023-01-20T12:10:21.147Z,-1.43
2023-01-20T12:13:13.108Z,-1.48
2023-01-20T12:15:42.668Z,-1.36
2023-01-20T12:18:39.079Z,-1.41
2023-01-20T12:21:18.350Z,-1.52
2023-01-20T12:24:03.305Z,-1.49
2023-01-20T12:26:31.860Z,-1.43
2023-01-20T12:28:58.608Z,-1.26
2023-01-20T12:31:25.736Z,-1.41
2023-01-20T12:34:09.588Z,-1.48
2023-01-20T12:37:10.264Z,-1.50
2023-01-20T12:40:07.386Z,-1.67
2023-01-20T12:43:16.122Z,-1.62
2023-01-20T12:45:57.904Z,-1.59
2023-01-20T12:48:50.473Z,-1.64
2023-01-20T12:51:23.948Z,-1.53
2023-01-20T12:53:59.417Z,-1.64
2023-01-20T12:56:50.680Z,-1.77
2023-01-20T12:59:27.788Z,-1.62
2023-01-20T13:02:12.700Z,-1.45
2023-01-20T13:05:05.075Z,-1.51
2023-01-20T13:07:38.938Z,-1.52
2023-01-20T13:10:43.324Z,-1.46
2023-01-20T13:13:40.218Z,-1.54
2023-01-20T13:16:31.631Z,-1.63
2023-01-20T13:19:28.829Z,-1.60
2023-01-20T13:22:07.594Z,-1.73
2023-01-20T13:24:35.515Z,-1.70
2023-01-20T13:27:03.100Z,-1.63
2023-01-20T13:29:35.909Z,-1.54
2023-01-20T13:32:03.762Z,-1.48
2023-01-20T13:34:32.669Z,-1.60
2023-01-20T13:37:02.436Z,-1.53
2023-01-20T13:39:41.132Z,-1.60
2023-01-20T13:42:38.794Z,-1.52
2023-01-20T13:45:14.962Z,-1.45
2023-01-20T13:48:06.375Z,-1.43
2023-01-20T13:50:34.606Z,-1.53
2023-01-20T13:53:10.798Z,-1.66
2023-01-20T13:55:49.698Z,-1.75
2023-01-20T13:58:17.110Z,-1.70
2023-01-20T14:00:44.706Z,-1.74
2023-01-20T14:03:22.327Z,-1.68
2023-01-20T14:06:12.043Z,-1.50
2023-01-20T14:08:43.875Z,-1.71
2023-01-20T14:11:13.430Z,-1.55
2023-01-20T14:13:41.467Z,-1.50
2023-01-20T14:16:24.556Z,-1.61
2023-01-20T14:18:54.647Z,-1.58
2023-01-20T14:21:27.009Z,-1.62
2023-01-20T14:23:54.118Z,-1.58
2023-01-20T14:26:27.849Z,-1.64
2023-01-20T14:28:57.707Z,-1.59
2023-01-20T14:31:27.633Z,-1.53
2023-01-20T14:33:54.786Z,-1.70
2023-01-20T14:36:22.667Z,-1.66
2023-01-20T14:38:58.266Z,-1.66
2023-01-20T14:41:25.208Z,-1.50
2023-01-20T14:43:51.910Z,-1.64
2023-01-20T14:46:18.778Z,-1.83
2023-01-20T14:48:45.792Z,-1.84
2023-01-20T14:51:13.099Z,-1.90
2023-01-20T14:53:39.858Z,-2.00
2023-01-20T14:56:19.008Z,-1.94
2023-01-20T14:58:49.872Z,-1.90
2023-01-20T15:01:26.113Z,-1.75
2023-01-20T15:04:00.211Z,-1.78
2023-01-20T15:06:27.108Z,-1.75
2023-01-20T15:09:06.029Z,-1.72
2023-01-20T15:11:34.087Z,-1.78
2023-01-20T15:14:01.146Z,-1.75
2023-01-20T15:16:32.122Z,-1.85
2023-01-20T15:19:14.197Z,-1.83
2023-01-20T15:21:44.074Z,-1.83
2023-01-20T15:24:31.491Z,-1.89
2023-01-20T15:27:00.737Z,-1.85
2023-01-20T15:29:28.420Z,-1.88
2023-01-20T15:31:57.291Z,-1.97
2023-01-20T15:34:25.236Z,-1.99
2023-01-20T15:36:52.908Z,-1.94
2023-01-20T15:39:24.266Z,-2.13
2023-01-20T15:41:54.079Z,-2.03
2023-01-20T15:44:25.401Z,-2.08
2023-01-20T15:46:54.159Z,-2.06
2023-01-20T15:49:22.070Z,-2.05
2023-01-20T15:51:48.758Z,-2.03
2023-01-20T15:54:15.434Z,-2.04
2023-01-20T15:56:43.130Z,-1.99
2023-01-20T15:59:18.238Z,-2.00
2023-01-20T16:01:50.293Z,-2.03
2023-01-20T16:04:17.319Z,-2.02
2023-01-20T16:06:44.474Z,-1.91
2023-01-20T16:09:37.217Z,-1.97
2023-01-20T16:12:04.260Z,-2.05
2023-01-20T16:14:31.006Z,-2.07
2023-01-20T16:16:57.718Z,-2.05
2023-01-20T16:19:24.388Z,-2.10
2023-01-20T16:21:51.120Z,-2.05
2023-01-20T16:24:17.822Z,-2.02
2023-01-20T16:26:46.243Z,-2.11
2023-01-20T16:29:12.967Z,-2.08
2023-01-20T16:31:39.694Z,-2.12
2023-01-20T16:34:07.996Z,-2.11
2023-01-20T16:36:34.703Z,-2.05
2023-01-20T16:39:01.401Z,-2.14
2023-01-20T16:41:30.978Z,-2.04
2023-01-20T16:43:58.860Z,-2.03
2023-01-20T16:46:28.548Z,-2.00
2023-01-20T16:48:59.755Z,-2.02
2023-01-20T16:51:28.245Z,-2.01
2023-01-20T16:53:56.102Z,-2.05
2023-01-20T16:56:28.171Z,-2.08
2023-01-20T16:58:57.869Z,-2.12
2023-01-20T17:01:25.747Z,-2.17
2023-01-20T17:03:54.415Z,-2.03
2023-01-20T17:06:23.898Z,-2.10
2023-01-20T17:08:56.719Z,-2.13
2023-01-20T17:11:28.843Z,-2.12
2023-01-20T17:13:55.946Z,-2.01
2023-01-20T17:16:23.633Z,-2.05
2023-01-20T17:18:51.506Z,-2.10
2023-01-20T17:21:20.767Z,-2.15
2023-01-20T17:23:54.766Z,-2.06
2023-01-20T17:26:21.930Z,-2.13
2023-01-20T17:28:48.952Z,-2.10
2023-01-20T17:31:15.714Z,-2.07
2023-01-20T17:33:46.442Z,-2.11
2023-01-20T17:36:13.343Z,-2.06
2023-01-20T17:38:40.295Z,-2.14
2023-01-20T17:41:08.355Z,-2.09
2023-01-20T17:43:36.833Z,-2.08
2023-01-20T17:46:13.480Z,-2.04
2023-01-20T17:48:40.357Z,-2.06
2023-01-20T17:51:21.303Z,-1.97
2023-01-20T17:53:48.576Z,-2.01
2023-01-20T17:56:15.950Z,-2.01
2023-01-20T17:58:43.818Z,-2.07
2023-01-20T18:01:11.612Z,-2.06
2023-01-20T18:03:40.367Z,-1.97
2023-01-20T18:06:09.448Z,-2.05
2023-01-20T18:08:36.393Z,-2.12
2023-01-20T18:11:03.952Z,-2.28
2023-01-20T18:13:30.798Z,-2.17
2023-01-20T18:15:57.539Z,-2.18
2023-01-20T18:18:24.764Z,-2.26
2023-01-20T18:20:51.672Z,-2.19
2023-01-20T18:23:18.399Z,-2.22
2023-01-20T18:25:45.139Z,-2.20
2023-01-20T18:28:12.717Z,-2.22
2023-01-20T18:30:39.468Z,-2.21
2023-01-20T18:33:06.284Z,-2.16
2023-01-20T18:35:32.969Z,-2.15
2023-01-20T18:38:01.936Z,-2.20
2023-01-20T18:40:28.786Z,-2.16
2023-01-20T18:42:55.724Z,-2.14
2023-01-20T18:45:22.368Z,-2.10
2023-01-20T18:47:49.592Z,-2.07
2023-01-20T18:50:17.248Z,-2.11
2023-01-20T18:52:44.187Z,-2.16
2023-01-20T18:55:10.919Z,-2.17
2023-01-20T18:57:37.621Z,-2.20
2023-01-20T19:00:04.983Z,-2.18
2023-01-20T19:02:31.715Z,-2.21
2023-01-20T19:04:58.717Z,-2.24
2023-01-20T19:07:25.542Z,-2.26
2023-01-20T19:09:52.496Z,-2.21
2023-01-20T19:12:19.146Z,-2.14
2023-01-20T19:14:45.842Z,-2.19
2023-01-20T19:17:12.528Z,-2.13
2023-01-20T19:19:39.228Z,-2.15
2023-01-20T19:22:05.949Z,-2.15
2023-01-20T19:24:32.784Z,-2.26
2023-01-20T19:27:00.541Z,-2.24
2023-01-20T19:29:29.379Z,-2.20
2023-01-20T19:31:56.512Z,-2.22
2023-01-20T19:34:23.215Z,-2.13
2023-01-20T19:36:49.911Z,-2.17
2023-01-20T19:39:16.788Z,-2.19
2023-01-20T19:41:43.962Z,-2.15
2023-01-20T19:44:11.202Z,-2.05
2023-01-20T19:46:39.018Z,-2.04
2023-01-20T19:49:06.087Z,-2.02
2023-01-20T19:51:32.771Z,-2.07
2023-01-20T19:54:01.129Z,-2.09
2023-01-20T19:56:30.508Z,-2.11
2023-01-20T19:58:57.808Z,-2.16
2023-01-20T20:01:31.547Z,-2.16
2023-01-20T20:03:59.225Z,-2.08
2023-01-20T20:06:32.752Z,-2.14
2023-01-20T20:09:01.931Z,-2.19
2023-01-20T20:11:29.915Z,-2.18
2023-01-20T20:14:04.511Z,-2.08
2023-01-20T20:16:33.333Z,-2.06
2023-01-20T20:19:00.377Z,-2.04
2023-01-20T20:21:27.523Z,-2.11
2023-01-20T20:23:59.093Z,-2.10
2023-01-20T20:26:29.309Z,-2.13
2023-01-20T20:28:56.154Z,-2.14
2023-01-20T20:31:29.036Z,-2.05
2023-01-20T20:33:59.926Z,-2.08
2023-01-20T20:36:31.243Z,-2.12
2023-01-20T20:38:59.167Z,-2.05
2023-01-20T20:41:28.917Z,-2.11
2023-01-20T20:43:57.579Z,-2.19
2023-01-20T20:46:24.894Z,-2.14
2023-01-20T20:48:55.956Z,-2.13
2023-01-20T20:51:24.171Z,-2.13
2023-01-20T20:53:55.075Z,-2.02
2023-01-20T20:56:23.083Z,-2.01
2023-01-20T20:59:01.060Z,-2.06
2023-01-20T21:01:29.835Z,-2.10
2023-01-20T21:03:57.984Z,-2.01
2023-01-20T21:06:25.453Z,-2.05
2023-01-20T21:08:52.895Z,-2.15
2023-01-20T21:11:24.141Z,-2.16
2023-01-20T21:13:51.348Z,-2.08
2023-01-20T21:16:21.975Z,-2.02
2023-01-20T21:18:49.784Z,-2.05
2023-01-20T21:21:22.272Z,-2.01
2023-01-20T21:23:54.127Z,-2.08
2023-01-20T21:26:21.682Z,-1.99
2023-01-20T21:28:51.234Z,-2.11
2023-01-20T21:31:21.468Z,-2.03
2023-01-20T21:33:53.510Z,-2.01
2023-01-20T21:36:21.089Z,-2.08
2023-01-20T21:38:47.689Z,-2.15
2023-01-20T21:41:15.259Z,-2.07
2023-01-20T21:44:02.302Z,-2.11
2023-01-20T21:46:31.635Z,-2.13
2023-01-20T21:49:16.926Z,-2.08
2023-01-20T21:52:02.233Z,-2.04
2023-01-20T21:54:30.349Z,-2.01
2023-01-20T21:56:57.453Z,-2.07
2023-01-20T21:59:24.144Z,-2.09
2023-01-20T22:01:51.379Z,-2.14
2023-01-20T22:04:18.158Z,-2.22
2023-01-20T22:06:45.143Z,-2.24
2023-01-20T22:09:12.052Z,-2.23
2023-01-20T22:11:38.695Z,-2.21
2023-01-20T22:14:05.421Z,-2.23
2023-01-20T22:16:32.462Z,-2.26
2023-01-20T22:18:59.343Z,-2.17
2023-01-20T22:21:26.752Z,-2.24
2023-01-20T22:23:53.888Z,-2.27
2023-01-20T22:26:20.600Z,-2.19
2023-01-20T22:28:47.247Z,-2.24
2023-01-20T22:31:19.809Z,-2.27
2023-01-20T22:33:51.067Z,-2.33
2023-01-20T22:36:17.768Z,-2.33
2023-01-20T22:38:46.015Z,-2.39
2023-01-20T22:41:13.089Z,-2.20
2023-01-20T22:43:41.208Z,-2.27
2023-01-20T22:46:07.910Z,-2.24
2023-01-20T22:48:34.814Z,-2.29
2023-01-20T22:51:07.146Z,-2.30
2023-01-20T22:53:34.262Z,-2.32
2023-01-20T22:56:08.743Z,-2.31
2023-01-20T22:58:35.357Z,-2.26
2023-01-20T23:01:02.184Z,-2.25
2023-01-20T23:03:28.841Z,-2.18
2023-01-20T23:05:58.338Z,-2.25
2023-01-20T23:08:25.837Z,-2.22
2023-01-20T23:10:57.530Z,-2.18
2023-01-20T23:13:25.531Z,-2.15
2023-01-20T23:15:52.516Z,-2.14
2023-01-20T23:18:19.699Z,-2.10
2023-01-20T23:20:49.947Z,-2.08
2023-01-20T23:23:17.052Z,-2.10
2023-01-20T23:25:43.682Z,-2.14
2023-01-20T23:28:10.900Z,-2.16
2023-01-20T23:30:38.273Z,-2.11
2023-01-20T23:33:05.433Z,-2.20
2023-01-20T23:35:34.369Z,-2.18
2023-01-20T23:38:01.009Z,-2.16
2023-01-20T23:40:28.484Z,-2.27
2023-01-20T23:42:55.108Z,-2.27
2023-01-20T23:45:21.729Z,-2.21
2023-01-20T23:47:48.305Z,-2.16
2023-01-20T23:50:15.287Z,-2.15
2023-01-20T23:52:42.092Z,-2.21
2023-01-20T23:55:09.180Z,-2.26
2023-01-20T23:57:35.807Z,-2.16
